sensor_id;sensor_type;location;lat;lon;timestamp;temperature;humidity
32446;DHT22;18899;50.748;7.102;2022-12-24T00:01:33;12.50;99.90
32446;DHT22;18899;50.748;7.102;2022-12-24T00:03:59;12.50;99.90
32446;DHT22;18899;50.748;7.102;2022-12-24T00:06:24;12.40;99.90
32446;DHT22;18899;50.748;7.102;2022-12-24T00:08:50;12.20;99.90
32446;DHT22;18899;50.748;7.102;2022-12-24T00:11:16;12.10;99.90
32446;DHT22;18899;50.748;7.102;2022-12-24T00:13:41;12.00;99.90
32446;DHT22;18899;50.748;7.102;2022-12-24T00:16:07;12.00;99.90
32446;DHT22;18899;50.748;7.102;2022-12-24T00:18:32;12.00;99.90
32446;DHT22;18899;50.748;7.102;2022-12-24T00:20:58;11.80;99.90
32446;DHT22;18899;50.748;7.102;2022-12-24T00:23:24;11.80;99.90
32446;DHT22;18899;50.748;7.102;2022-12-24T00:25:50;11.70;99.90
32446;DHT22;18899;50.748;7.102;2022-12-24T00:28:16;11.50;99.90
32446;DHT22;18899;50.748;7.102;2022-12-24T00:30:42;11.40;99.90
32446;DHT22;18899;50.748;7.102;2022-12-24T00:33:08;11.30;99.90
32446;DHT22;18899;50.748;7.102;2022-12-24T00:35:34;11.20;99.90
32446;DHT22;18899;50.748;7.102;2022-12-24T00:38:00;11.10;99.90
32446;DHT22;18899;50.748;7.102;2022-12-24T00:40:25;11.10;99.90
32446;DHT22;18899;50.748;7.102;2022-12-24T00:42:51;11.10;99.90
32446;DHT22;18899;50.748;7.102;2022-12-24T00:45:16;11.20;99.90
32446;DHT22;18899;50.748;7.102;2022-12-24T00:47:42;11.40;99.90
32446;DHT22;18899;50.748;7.102;2022-12-24T00:50:08;11.50;99.90
32446;DHT22;18899;50.748;7.102;2022-12-24T00:52:34;11.50;99.90
32446;DHT22;18899;50.748;7.102;2022-12-24T00:55:00;11.60;99.90
32446;DHT22;18899;50.748;7.102;2022-12-24T00:57:25;11.60;99.90
32446;DHT22;18899;50.748;7.102;2022-12-24T00:59:51;11.70;99.90
32446;DHT22;18899;50.748;7.102;2022-12-24T01:02:17;11.70;99.90
32446;DHT22;18899;50.748;7.102;2022-12-24T01:04:42;11.70;99.90
32446;DHT22;18899;50.748;7.102;2022-12-24T01:07:26;11.80;99.90
32446;DHT22;18899;50.748;7.102;2022-12-24T01:09:52;11.80;99.90
32446;DHT22;18899;50.748;7.102;2022-12-24T01:12:17;11.80;99.90
32446;DHT22;18899;50.748;7.102;2022-12-24T01:14:43;11.80;99.90
32446;DHT22;18899;50.748;7.102;2022-12-24T01:17:09;11.80;99.90
32446;DHT22;18899;50.748;7.102;2022-12-24T01:19:35;11.90;99.90
32446;DHT22;18899;50.748;7.102;2022-12-24T01:22:00;11.90;99.90
32446;DHT22;18899;50.748;7.102;2022-12-24T01:24:26;12.00;99.90
32446;DHT22;18899;50.748;7.102;2022-12-24T01:26:52;11.90;99.90
32446;DHT22;18899;50.748;7.102;2022-12-24T01:29:17;11.90;99.90
32446;DHT22;18899;50.748;7.102;2022-12-24T01:31:43;12.00;99.90
32446;DHT22;18899;50.748;7.102;2022-12-24T01:34:08;12.00;99.90
32446;DHT22;18899;50.748;7.102;2022-12-24T01:36:35;12.10;99.90
32446;DHT22;18899;50.748;7.102;2022-12-24T01:39:00;12.10;99.90
32446;DHT22;18899;50.748;7.102;2022-12-24T01:41:26;12.10;99.90
32446;DHT22;18899;50.748;7.102;2022-12-24T01:44:31;12.00;99.90
32446;DHT22;18899;50.748;7.102;2022-12-24T01:49:32;12.00;99.90
32446;DHT22;18899;50.748;7.102;2022-12-24T01:52:02;12.00;99.90
32446;DHT22;18899;50.748;7.102;2022-12-24T01:54:31;12.00;99.90
32446;DHT22;18899;50.748;7.102;2022-12-24T01:57:06;12.00;99.90
32446;DHT22;18899;50.748;7.102;2022-12-24T01:59:35;11.90;99.90
32446;DHT22;18899;50.748;7.102;2022-12-24T02:02:00;11.90;99.90
32446;DHT22;18899;50.748;7.102;2022-12-24T02:04:57;12.00;99.90
32446;DHT22;18899;50.748;7.102;2022-12-24T02:07:21;12.00;99.90
32446;DHT22;18899;50.748;7.102;2022-12-24T02:09:48;12.00;99.90
32446;DHT22;18899;50.748;7.102;2022-12-24T02:12:15;11.90;99.90
32446;DHT22;18899;50.748;7.102;2022-12-24T02:14:41;11.90;99.90
32446;DHT22;18899;50.748;7.102;2022-12-24T02:17:20;11.80;99.90
32446;DHT22;18899;50.748;7.102;2022-12-24T02:31:49;11.30;99.90
32446;DHT22;18899;50.748;7.102;2022-12-24T02:34:31;11.30;99.90
32446;DHT22;18899;50.748;7.102;2022-12-24T02:37:24;11.40;99.90
32446;DHT22;18899;50.748;7.102;2022-12-24T02:42:25;11.30;99.90
32446;DHT22;18899;50.748;7.102;2022-12-24T02:44:55;11.20;99.90
32446;DHT22;18899;50.748;7.102;2022-12-24T02:47:25;11.20;99.90
32446;DHT22;18899;50.748;7.102;2022-12-24T02:49:52;11.10;99.90
32446;DHT22;18899;50.748;7.102;2022-12-24T02:55:01;11.00;99.90
32446;DHT22;18899;50.748;7.102;2022-12-24T03:00:17;11.30;99.90
32446;DHT22;18899;50.748;7.102;2022-12-24T03:02:51;11.40;99.90
32446;DHT22;18899;50.748;7.102;2022-12-24T03:05:33;11.50;99.90
32446;DHT22;18899;50.748;7.102;2022-12-24T03:11:04;11.60;99.90
32446;DHT22;18899;50.748;7.102;2022-12-24T03:13:30;11.60;99.90
32446;DHT22;18899;50.748;7.102;2022-12-24T03:15:56;11.60;99.90
32446;DHT22;18899;50.748;7.102;2022-12-24T03:18:24;11.70;99.90
32446;DHT22;18899;50.748;7.102;2022-12-24T03:21:00;11.60;99.90
32446;DHT22;18899;50.748;7.102;2022-12-24T03:23:28;11.60;99.90
32446;DHT22;18899;50.748;7.102;2022-12-24T03:25:54;11.50;99.90
32446;DHT22;18899;50.748;7.102;2022-12-24T03:28:25;11.50;99.90
32446;DHT22;18899;50.748;7.102;2022-12-24T03:30:52;11.30;99.90
32446;DHT22;18899;50.748;7.102;2022-12-24T03:33:18;11.10;99.90
32446;DHT22;18899;50.748;7.102;2022-12-24T03:35:44;11.10;99.90
32446;DHT22;18899;50.748;7.102;2022-12-24T03:38:10;11.00;99.90
32446;DHT22;18899;50.748;7.102;2022-12-24T03:40:35;11.00;99.90
32446;DHT22;18899;50.748;7.102;2022-12-24T03:43:01;10.90;99.90
32446;DHT22;18899;50.748;7.102;2022-12-24T03:45:26;10.80;99.90
32446;DHT22;18899;50.748;7.102;2022-12-24T03:47:52;10.70;99.90
32446;DHT22;18899;50.748;7.102;2022-12-24T03:50:17;10.80;99.90
32446;DHT22;18899;50.748;7.102;2022-12-24T03:52:43;10.80;99.90
32446;DHT22;18899;50.748;7.102;2022-12-24T03:55:09;10.70;99.90
32446;DHT22;18899;50.748;7.102;2022-12-24T03:57:34;10.60;99.90
32446;DHT22;18899;50.748;7.102;2022-12-24T04:00:00;10.60;99.90
32446;DHT22;18899;50.748;7.102;2022-12-24T04:02:25;10.60;99.90
32446;DHT22;18899;50.748;7.102;2022-12-24T04:04:51;10.50;99.90
32446;DHT22;18899;50.748;7.102;2022-12-24T04:07:16;10.60;99.90
32446;DHT22;18899;50.748;7.102;2022-12-24T04:09:42;10.60;99.90
32446;DHT22;18899;50.748;7.102;2022-12-24T04:12:07;10.70;99.90
32446;DHT22;18899;50.748;7.102;2022-12-24T04:14:33;11.00;99.90
32446;DHT22;18899;50.748;7.102;2022-12-24T04:16:59;10.90;99.90
32446;DHT22;18899;50.748;7.102;2022-12-24T04:19:24;10.80;99.90
32446;DHT22;18899;50.748;7.102;2022-12-24T04:21:50;10.80;99.90
32446;DHT22;18899;50.748;7.102;2022-12-24T04:24:15;10.80;99.90
32446;DHT22;18899;50.748;7.102;2022-12-24T04:26:41;10.70;99.90
32446;DHT22;18899;50.748;7.102;2022-12-24T04:29:07;10.70;99.90
32446;DHT22;18899;50.748;7.102;2022-12-24T04:31:32;10.70;99.90
32446;DHT22;18899;50.748;7.102;2022-12-24T04:33:58;10.80;99.90
32446;DHT22;18899;50.748;7.102;2022-12-24T04:36:23;10.70;99.90
32446;DHT22;18899;50.748;7.102;2022-12-24T04:38:49;10.60;99.90
32446;DHT22;18899;50.748;7.102;2022-12-24T04:41:19;10.50;99.90
32446;DHT22;18899;50.748;7.102;2022-12-24T04:43:45;10.50;99.90
32446;DHT22;18899;50.748;7.102;2022-12-24T04:46:13;10.40;99.90
32446;DHT22;18899;50.748;7.102;2022-12-24T04:48:39;10.40;99.90
32446;DHT22;18899;50.748;7.102;2022-12-24T04:51:05;10.50;99.90
32446;DHT22;18899;50.748;7.102;2022-12-24T04:53:32;10.40;99.90
32446;DHT22;18899;50.748;7.102;2022-12-24T04:55:58;10.20;99.90
32446;DHT22;18899;50.748;7.102;2022-12-24T04:58:23;10.10;99.90
32446;DHT22;18899;50.748;7.102;2022-12-24T05:00:49;10.00;99.90
32446;DHT22;18899;50.748;7.102;2022-12-24T05:03:14;9.90;99.90
32446;DHT22;18899;50.748;7.102;2022-12-24T05:05:40;9.80;99.90
32446;DHT22;18899;50.748;7.102;2022-12-24T05:08:06;9.80;99.90
32446;DHT22;18899;50.748;7.102;2022-12-24T05:10:31;9.80;99.90
32446;DHT22;18899;50.748;7.102;2022-12-24T05:12:57;9.80;99.90
32446;DHT22;18899;50.748;7.102;2022-12-24T05:15:23;9.90;99.90
32446;DHT22;18899;50.748;7.102;2022-12-24T05:17:48;9.90;99.90
32446;DHT22;18899;50.748;7.102;2022-12-24T05:20:14;10.00;99.90
32446;DHT22;18899;50.748;7.102;2022-12-24T05:22:40;10.00;99.90
32446;DHT22;18899;50.748;7.102;2022-12-24T05:25:30;9.90;99.90
32446;DHT22;18899;50.748;7.102;2022-12-24T05:28:15;9.90;99.90
32446;DHT22;18899;50.748;7.102;2022-12-24T05:30:41;10.00;99.90
32446;DHT22;18899;50.748;7.102;2022-12-24T05:33:06;10.00;99.90
32446;DHT22;18899;50.748;7.102;2022-12-24T05:35:32;10.00;99.90
32446;DHT22;18899;50.748;7.102;2022-12-24T05:37:58;10.10;99.90
32446;DHT22;18899;50.748;7.102;2022-12-24T05:40:23;10.10;99.90
32446;DHT22;18899;50.748;7.102;2022-12-24T05:42:49;10.20;99.90
32446;DHT22;18899;50.748;7.102;2022-12-24T05:45:15;10.10;99.90
32446;DHT22;18899;50.748;7.102;2022-12-24T05:47:40;10.10;99.90
32446;DHT22;18899;50.748;7.102;2022-12-24T05:50:06;10.10;99.90
32446;DHT22;18899;50.748;7.102;2022-12-24T05:52:32;10.20;99.90
32446;DHT22;18899;50.748;7.102;2022-12-24T05:54:57;10.40;99.90
32446;DHT22;18899;50.748;7.102;2022-12-24T05:57:23;10.40;99.90
32446;DHT22;18899;50.748;7.102;2022-12-24T05:59:48;10.50;99.90
32446;DHT22;18899;50.748;7.102;2022-12-24T06:02:14;10.50;99.90
32446;DHT22;18899;50.748;7.102;2022-12-24T06:04:39;10.30;99.90
32446;DHT22;18899;50.748;7.102;2022-12-24T06:07:05;10.20;99.90
32446;DHT22;18899;50.748;7.102;2022-12-24T06:09:30;10.30;99.90
32446;DHT22;18899;50.748;7.102;2022-12-24T06:11:56;10.30;99.90
32446;DHT22;18899;50.748;7.102;2022-12-24T06:14:22;10.40;99.90
32446;DHT22;18899;50.748;7.102;2022-12-24T06:16:47;10.30;99.90
32446;DHT22;18899;50.748;7.102;2022-12-24T06:19:13;10.20;99.90
32446;DHT22;18899;50.748;7.102;2022-12-24T06:21:38;10.20;99.90
32446;DHT22;18899;50.748;7.102;2022-12-24T06:24:04;10.40;99.90
32446;DHT22;18899;50.748;7.102;2022-12-24T06:26:30;10.40;99.90
32446;DHT22;18899;50.748;7.102;2022-12-24T06:28:55;10.40;99.90
32446;DHT22;18899;50.748;7.102;2022-12-24T06:31:21;10.40;99.90
32446;DHT22;18899;50.748;7.102;2022-12-24T06:33:47;10.40;99.90
32446;DHT22;18899;50.748;7.102;2022-12-24T06:36:22;10.50;99.90
32446;DHT22;18899;50.748;7.102;2022-12-24T06:38:48;10.50;99.90
32446;DHT22;18899;50.748;7.102;2022-12-24T06:41:15;10.50;99.90
32446;DHT22;18899;50.748;7.102;2022-12-24T06:43:46;10.40;99.90
32446;DHT22;18899;50.748;7.102;2022-12-24T06:46:12;10.40;99.90
32446;DHT22;18899;50.748;7.102;2022-12-24T06:48:38;10.40;99.90
32446;DHT22;18899;50.748;7.102;2022-12-24T06:51:04;10.50;99.90
32446;DHT22;18899;50.748;7.102;2022-12-24T06:53:31;10.50;99.90
32446;DHT22;18899;50.748;7.102;2022-12-24T06:56:10;10.50;99.90
32446;DHT22;18899;50.748;7.102;2022-12-24T06:58:35;10.50;99.90
32446;DHT22;18899;50.748;7.102;2022-12-24T07:01:02;10.40;99.90
32446;DHT22;18899;50.748;7.102;2022-12-24T07:03:29;10.30;99.90
32446;DHT22;18899;50.748;7.102;2022-12-24T07:05:55;10.20;99.90
32446;DHT22;18899;50.748;7.102;2022-12-24T07:08:21;10.20;99.90
32446;DHT22;18899;50.748;7.102;2022-12-24T07:10:48;10.20;99.90
32446;DHT22;18899;50.748;7.102;2022-12-24T07:13:14;10.20;99.90
32446;DHT22;18899;50.748;7.102;2022-12-24T07:15:40;10.10;99.90
32446;DHT22;18899;50.748;7.102;2022-12-24T07:18:05;10.00;99.90
32446;DHT22;18899;50.748;7.102;2022-12-24T07:20:31;9.90;99.90
32446;DHT22;18899;50.748;7.102;2022-12-24T07:22:56;9.80;99.90
32446;DHT22;18899;50.748;7.102;2022-12-24T07:25:22;9.80;99.90
32446;DHT22;18899;50.748;7.102;2022-12-24T07:27:47;9.90;99.90
32446;DHT22;18899;50.748;7.102;2022-12-24T07:30:13;9.90;99.90
32446;DHT22;18899;50.748;7.102;2022-12-24T07:32:38;10.00;99.90
32446;DHT22;18899;50.748;7.102;2022-12-24T07:35:04;9.90;99.90
32446;DHT22;18899;50.748;7.102;2022-12-24T07:37:30;9.80;99.90
32446;DHT22;18899;50.748;7.102;2022-12-24T07:39:56;9.80;99.90
32446;DHT22;18899;50.748;7.102;2022-12-24T07:42:21;9.70;99.90
32446;DHT22;18899;50.748;7.102;2022-12-24T07:44:47;9.70;99.90
32446;DHT22;18899;50.748;7.102;2022-12-24T07:47:12;9.80;99.90
32446;DHT22;18899;50.748;7.102;2022-12-24T07:49:38;9.80;99.90
32446;DHT22;18899;50.748;7.102;2022-12-24T07:52:03;10.00;99.90
32446;DHT22;18899;50.748;7.102;2022-12-24T07:54:29;10.10;99.90
32446;DHT22;18899;50.748;7.102;2022-12-24T07:56:55;10.10;99.90
32446;DHT22;18899;50.748;7.102;2022-12-24T07:59:20;10.20;99.90
32446;DHT22;18899;50.748;7.102;2022-12-24T08:01:46;10.20;99.90
32446;DHT22;18899;50.748;7.102;2022-12-24T08:04:12;10.30;99.90
32446;DHT22;18899;50.748;7.102;2022-12-24T08:06:37;10.50;99.90
32446;DHT22;18899;50.748;7.102;2022-12-24T08:09:03;10.80;99.90
32446;DHT22;18899;50.748;7.102;2022-12-24T08:11:29;11.00;99.90
32446;DHT22;18899;50.748;7.102;2022-12-24T08:13:55;11.00;99.90
32446;DHT22;18899;50.748;7.102;2022-12-24T08:16:20;11.10;99.90
32446;DHT22;18899;50.748;7.102;2022-12-24T08:18:46;11.20;99.90
32446;DHT22;18899;50.748;7.102;2022-12-24T08:21:11;11.30;99.90
32446;DHT22;18899;50.748;7.102;2022-12-24T08:23:37;11.40;99.90
32446;DHT22;18899;50.748;7.102;2022-12-24T08:26:06;11.60;99.90
32446;DHT22;18899;50.748;7.102;2022-12-24T08:28:32;11.70;99.90
32446;DHT22;18899;50.748;7.102;2022-12-24T08:30:58;11.80;99.90
32446;DHT22;18899;50.748;7.102;2022-12-24T08:33:24;11.90;99.90
32446;DHT22;18899;50.748;7.102;2022-12-24T08:35:52;12.10;99.90
32446;DHT22;18899;50.748;7.102;2022-12-24T08:38:18;12.30;99.90
32446;DHT22;18899;50.748;7.102;2022-12-24T08:40:44;12.40;99.90
32446;DHT22;18899;50.748;7.102;2022-12-24T08:43:13;12.60;99.90
32446;DHT22;18899;50.748;7.102;2022-12-24T08:45:39;12.70;99.90
32446;DHT22;18899;50.748;7.102;2022-12-24T08:48:06;12.60;99.90
32446;DHT22;18899;50.748;7.102;2022-12-24T08:50:32;12.90;99.90
32446;DHT22;18899;50.748;7.102;2022-12-24T08:52:58;13.30;99.90
32446;DHT22;18899;50.748;7.102;2022-12-24T08:55:24;13.80;99.90
32446;DHT22;18899;50.748;7.102;2022-12-24T08:57:50;14.30;99.90
32446;DHT22;18899;50.748;7.102;2022-12-24T09:00:15;14.50;99.90
32446;DHT22;18899;50.748;7.102;2022-12-24T09:02:41;14.30;99.90
32446;DHT22;18899;50.748;7.102;2022-12-24T09:05:07;14.20;99.90
32446;DHT22;18899;50.748;7.102;2022-12-24T09:07:32;14.20;99.90
32446;DHT22;18899;50.748;7.102;2022-12-24T09:09:58;14.40;99.90
32446;DHT22;18899;50.748;7.102;2022-12-24T09:12:24;14.60;99.90
32446;DHT22;18899;50.748;7.102;2022-12-24T09:14:50;14.40;99.90
32446;DHT22;18899;50.748;7.102;2022-12-24T09:17:16;14.10;99.90
32446;DHT22;18899;50.748;7.102;2022-12-24T09:19:41;13.90;99.90
32446;DHT22;18899;50.748;7.102;2022-12-24T09:22:07;13.90;99.90
32446;DHT22;18899;50.748;7.102;2022-12-24T09:24:32;13.70;99.90
32446;DHT22;18899;50.748;7.102;2022-12-24T09:27:00;13.50;99.90
32446;DHT22;18899;50.748;7.102;2022-12-24T09:29:27;13.40;99.90
32446;DHT22;18899;50.748;7.102;2022-12-24T09:31:52;13.50;99.90
32446;DHT22;18899;50.748;7.102;2022-12-24T09:34:19;13.60;99.90
32446;DHT22;18899;50.748;7.102;2022-12-24T09:36:45;13.70;99.90
32446;DHT22;18899;50.748;7.102;2022-12-24T09:39:11;13.70;99.90
32446;DHT22;18899;50.748;7.102;2022-12-24T09:47:39;13.80;99.90
32446;DHT22;18899;50.748;7.102;2022-12-24T09:52:47;14.30;99.90
32446;DHT22;18899;50.748;7.102;2022-12-24T09:55:26;14.40;99.90
32446;DHT22;18899;50.748;7.102;2022-12-24T09:57:53;14.50;99.90
32446;DHT22;18899;50.748;7.102;2022-12-24T10:00:29;14.60;99.90
32446;DHT22;18899;50.748;7.102;2022-12-24T10:02:56;14.50;99.90
32446;DHT22;18899;50.748;7.102;2022-12-24T10:05:47;14.20;99.90
32446;DHT22;18899;50.748;7.102;2022-12-24T10:08:58;14.10;99.90
32446;DHT22;18899;50.748;7.102;2022-12-24T10:11:22;13.90;99.90
32446;DHT22;18899;50.748;7.102;2022-12-24T10:13:54;13.80;99.90
32446;DHT22;18899;50.748;7.102;2022-12-24T10:24:52;13.40;99.90
32446;DHT22;18899;50.748;7.102;2022-12-24T10:27:24;13.30;99.90
32446;DHT22;18899;50.748;7.102;2022-12-24T10:29:58;13.30;99.90
32446;DHT22;18899;50.748;7.102;2022-12-24T10:32:28;13.40;99.90
32446;DHT22;18899;50.748;7.102;2022-12-24T10:35:07;13.50;99.90
32446;DHT22;18899;50.748;7.102;2022-12-24T10:37:33;13.60;99.90
32446;DHT22;18899;50.748;7.102;2022-12-24T10:39:59;13.50;99.90
32446;DHT22;18899;50.748;7.102;2022-12-24T10:42:38;13.40;99.90
32446;DHT22;18899;50.748;7.102;2022-12-24T10:45:06;13.50;99.90
32446;DHT22;18899;50.748;7.102;2022-12-24T10:47:37;13.40;99.90
32446;DHT22;18899;50.748;7.102;2022-12-24T10:50:28;13.50;99.90
32446;DHT22;18899;50.748;7.102;2022-12-24T10:53:03;13.60;99.90
32446;DHT22;18899;50.748;7.102;2022-12-24T10:55:31;13.60;99.90
32446;DHT22;18899;50.748;7.102;2022-12-24T10:58:17;13.40;99.90
32446;DHT22;18899;50.748;7.102;2022-12-24T11:00:49;13.60;99.90
32446;DHT22;18899;50.748;7.102;2022-12-24T11:03:33;13.60;99.90
32446;DHT22;18899;50.748;7.102;2022-12-24T11:08:33;13.60;99.90
32446;DHT22;18899;50.748;7.102;2022-12-24T11:11:14;13.60;99.90
32446;DHT22;18899;50.748;7.102;2022-12-24T11:16:18;13.60;99.90
32446;DHT22;18899;50.748;7.102;2022-12-24T11:18:51;13.60;99.90
32446;DHT22;18899;50.748;7.102;2022-12-24T11:21:25;13.70;99.90
32446;DHT22;18899;50.748;7.102;2022-12-24T11:24:38;13.80;99.90
32446;DHT22;18899;50.748;7.102;2022-12-24T11:26:44;13.80;99.90
32446;DHT22;18899;50.748;7.102;2022-12-24T11:29:20;13.90;99.90
32446;DHT22;18899;50.748;7.102;2022-12-24T11:31:46;14.00;99.90
32446;DHT22;18899;50.748;7.102;2022-12-24T11:34:27;14.00;99.90
32446;DHT22;18899;50.748;7.102;2022-12-24T11:37:13;13.90;99.90
32446;DHT22;18899;50.748;7.102;2022-12-24T11:39:54;13.80;99.90
32446;DHT22;18899;50.748;7.102;2022-12-24T11:42:32;13.70;99.90
32446;DHT22;18899;50.748;7.102;2022-12-24T11:45:23;13.60;99.90
32446;DHT22;18899;50.748;7.102;2022-12-24T11:47:48;13.50;99.90
32446;DHT22;18899;50.748;7.102;2022-12-24T11:50:33;13.30;99.90
32446;DHT22;18899;50.748;7.102;2022-12-24T11:55:47;13.30;99.90
32446;DHT22;18899;50.748;7.102;2022-12-24T12:01:11;13.40;99.90
32446;DHT22;18899;50.748;7.102;2022-12-24T12:03:48;13.50;99.90
32446;DHT22;18899;50.748;7.102;2022-12-24T12:08:50;13.60;99.90
32446;DHT22;18899;50.748;7.102;2022-12-24T12:11:18;13.60;99.90
32446;DHT22;18899;50.748;7.102;2022-12-24T12:13:45;13.70;99.90
32446;DHT22;18899;50.748;7.102;2022-12-24T12:16:31;13.70;99.90
32446;DHT22;18899;50.748;7.102;2022-12-24T12:19:22;13.80;99.90
32446;DHT22;18899;50.748;7.102;2022-12-24T12:21:50;13.80;99.90
32446;DHT22;18899;50.748;7.102;2022-12-24T12:24:22;13.80;99.90
32446;DHT22;18899;50.748;7.102;2022-12-24T12:27:00;13.80;99.90
32446;DHT22;18899;50.748;7.102;2022-12-24T12:29:41;13.80;99.90
32446;DHT22;18899;50.748;7.102;2022-12-24T12:32:21;13.80;99.90
32446;DHT22;18899;50.748;7.102;2022-12-24T12:35:04;13.80;99.90
32446;DHT22;18899;50.748;7.102;2022-12-24T12:37:40;13.70;99.90
32446;DHT22;18899;50.748;7.102;2022-12-24T12:40:13;13.50;99.90
32446;DHT22;18899;50.748;7.102;2022-12-24T12:42:39;13.60;99.90
32446;DHT22;18899;50.748;7.102;2022-12-24T12:45:20;13.50;99.90
32446;DHT22;18899;50.748;7.102;2022-12-24T12:50:57;13.20;99.90
32446;DHT22;18899;50.748;7.102;2022-12-24T12:53:53;13.20;99.90
32446;DHT22;18899;50.748;7.102;2022-12-24T12:56:31;13.40;99.90
32446;DHT22;18899;50.748;7.102;2022-12-24T12:59:07;13.50;99.90
32446;DHT22;18899;50.748;7.102;2022-12-24T13:04:42;13.70;99.90
32446;DHT22;18899;50.748;7.102;2022-12-24T13:10:19;13.80;99.90
32446;DHT22;18899;50.748;7.102;2022-12-24T13:19:14;13.90;99.90
32446;DHT22;18899;50.748;7.102;2022-12-24T13:21:43;14.00;99.90
32446;DHT22;18899;50.748;7.102;2022-12-24T13:24:20;14.00;99.90
32446;DHT22;18899;50.748;7.102;2022-12-24T13:27:10;14.00;99.90
32446;DHT22;18899;50.748;7.102;2022-12-24T13:29:43;13.90;99.90
32446;DHT22;18899;50.748;7.102;2022-12-24T13:37:23;13.60;99.90
32446;DHT22;18899;50.748;7.102;2022-12-24T13:50:50;13.40;99.90
32446;DHT22;18899;50.748;7.102;2022-12-24T13:56:01;13.30;99.90
32446;DHT22;18899;50.748;7.102;2022-12-24T13:58:28;13.40;99.90
32446;DHT22;18899;50.748;7.102;2022-12-24T14:00:56;13.40;99.90
32446;DHT22;18899;50.748;7.102;2022-12-24T14:03:42;13.50;99.90
32446;DHT22;18899;50.748;7.102;2022-12-24T14:06:11;13.50;99.90
32446;DHT22;18899;50.748;7.102;2022-12-24T14:08:41;13.50;99.90
32446;DHT22;18899;50.748;7.102;2022-12-24T14:11:28;13.50;99.90
32446;DHT22;18899;50.748;7.102;2022-12-24T14:14:08;13.40;99.90
32446;DHT22;18899;50.748;7.102;2022-12-24T14:16:42;13.40;99.90
32446;DHT22;18899;50.748;7.102;2022-12-24T14:19:13;13.40;99.90
32446;DHT22;18899;50.748;7.102;2022-12-24T14:22:11;13.40;99.90
32446;DHT22;18899;50.748;7.102;2022-12-24T14:24:41;13.40;99.90
32446;DHT22;18899;50.748;7.102;2022-12-24T14:27:20;13.30;99.90
32446;DHT22;18899;50.748;7.102;2022-12-24T14:30:27;13.30;99.90
32446;DHT22;18899;50.748;7.102;2022-12-24T14:32:53;13.20;99.90
32446;DHT22;18899;50.748;7.102;2022-12-24T14:35:20;13.20;99.90
32446;DHT22;18899;50.748;7.102;2022-12-24T14:38:04;13.20;99.90
32446;DHT22;18899;50.748;7.102;2022-12-24T14:40:33;13.10;99.90
32446;DHT22;18899;50.748;7.102;2022-12-24T14:48:56;13.00;99.90
32446;DHT22;18899;50.748;7.102;2022-12-24T14:52:16;12.90;99.90
32446;DHT22;18899;50.748;7.102;2022-12-24T14:54:44;12.90;99.90
32446;DHT22;18899;50.748;7.102;2022-12-24T14:57:17;13.00;99.90
32446;DHT22;18899;50.748;7.102;2022-12-24T15:07:42;12.80;99.90
32446;DHT22;18899;50.748;7.102;2022-12-24T15:10:34;12.70;99.90
32446;DHT22;18899;50.748;7.102;2022-12-24T15:13:03;12.50;99.90
32446;DHT22;18899;50.748;7.102;2022-12-24T15:15:29;12.50;99.90
32446;DHT22;18899;50.748;7.102;2022-12-24T15:17:56;12.70;99.90
32446;DHT22;18899;50.748;7.102;2022-12-24T15:20:24;12.80;99.90
32446;DHT22;18899;50.748;7.102;2022-12-24T15:22:54;12.80;99.90
32446;DHT22;18899;50.748;7.102;2022-12-24T15:25:29;12.90;99.90
32446;DHT22;18899;50.748;7.102;2022-12-24T15:27:55;13.00;99.90
32446;DHT22;18899;50.748;7.102;2022-12-24T15:30:25;13.00;99.90
32446;DHT22;18899;50.748;7.102;2022-12-24T15:32:55;12.90;99.90
32446;DHT22;18899;50.748;7.102;2022-12-24T15:37:57;12.70;99.90
32446;DHT22;18899;50.748;7.102;2022-12-24T15:40:23;12.60;99.90
32446;DHT22;18899;50.748;7.102;2022-12-24T15:42:50;12.40;99.90
32446;DHT22;18899;50.748;7.102;2022-12-24T15:47:53;12.20;99.90
32446;DHT22;18899;50.748;7.102;2022-12-24T15:50:46;12.20;99.90
32446;DHT22;18899;50.748;7.102;2022-12-24T15:53:14;12.10;99.90
32446;DHT22;18899;50.748;7.102;2022-12-24T15:55:45;12.00;99.90
32446;DHT22;18899;50.748;7.102;2022-12-24T15:58:26;11.80;99.90
32446;DHT22;18899;50.748;7.102;2022-12-24T16:06:17;11.60;99.90
32446;DHT22;18899;50.748;7.102;2022-12-24T16:08:43;11.40;99.90
32446;DHT22;18899;50.748;7.102;2022-12-24T16:11:15;11.20;99.90
32446;DHT22;18899;50.748;7.102;2022-12-24T16:16:33;11.20;99.90
32446;DHT22;18899;50.748;7.102;2022-12-24T16:18:59;11.20;99.90
32446;DHT22;18899;50.748;7.102;2022-12-24T16:21:38;11.20;99.90
32446;DHT22;18899;50.748;7.102;2022-12-24T16:26:33;10.90;99.90
32446;DHT22;18899;50.748;7.102;2022-12-24T16:28:59;10.90;99.90
32446;DHT22;18899;50.748;7.102;2022-12-24T16:31:31;10.80;99.90
32446;DHT22;18899;50.748;7.102;2022-12-24T16:33:59;10.70;99.90
32446;DHT22;18899;50.748;7.102;2022-12-24T16:36:25;10.60;99.90
32446;DHT22;18899;50.748;7.102;2022-12-24T16:38:50;10.60;99.90
32446;DHT22;18899;50.748;7.102;2022-12-24T16:41:35;10.60;99.90
32446;DHT22;18899;50.748;7.102;2022-12-24T16:44:20;10.60;99.90
32446;DHT22;18899;50.748;7.102;2022-12-24T16:46:46;10.70;99.90
32446;DHT22;18899;50.748;7.102;2022-12-24T16:49:49;10.80;99.90
32446;DHT22;18899;50.748;7.102;2022-12-24T16:52:20;10.90;99.90
32446;DHT22;18899;50.748;7.102;2022-12-24T16:54:47;11.00;99.90
32446;DHT22;18899;50.748;7.102;2022-12-24T16:57:13;11.00;99.90
32446;DHT22;18899;50.748;7.102;2022-12-24T16:59:38;11.00;99.90
32446;DHT22;18899;50.748;7.102;2022-12-24T17:02:04;11.00;99.90
32446;DHT22;18899;50.748;7.102;2022-12-24T17:04:31;11.00;99.90
32446;DHT22;18899;50.748;7.102;2022-12-24T17:06:57;11.10;99.90
32446;DHT22;18899;50.748;7.102;2022-12-24T17:09:23;11.20;99.90
32446;DHT22;18899;50.748;7.102;2022-12-24T17:11:48;11.30;99.90
32446;DHT22;18899;50.748;7.102;2022-12-24T17:14:14;11.50;99.90
32446;DHT22;18899;50.748;7.102;2022-12-24T17:16:39;11.60;99.90
32446;DHT22;18899;50.748;7.102;2022-12-24T17:19:05;11.70;99.90
32446;DHT22;18899;50.748;7.102;2022-12-24T17:21:31;11.90;99.90
32446;DHT22;18899;50.748;7.102;2022-12-24T17:23:56;11.90;99.90
32446;DHT22;18899;50.748;7.102;2022-12-24T17:26:22;11.90;99.90
32446;DHT22;18899;50.748;7.102;2022-12-24T17:28:48;11.80;99.90
32446;DHT22;18899;50.748;7.102;2022-12-24T17:31:17;11.60;99.90
32446;DHT22;18899;50.748;7.102;2022-12-24T17:33:43;11.60;99.90
32446;DHT22;18899;50.748;7.102;2022-12-24T17:36:09;11.60;99.90
32446;DHT22;18899;50.748;7.102;2022-12-24T17:38:35;11.50;99.90
32446;DHT22;18899;50.748;7.102;2022-12-24T17:41:06;11.40;99.90
32446;DHT22;18899;50.748;7.102;2022-12-24T17:43:33;11.10;99.90
32446;DHT22;18899;50.748;7.102;2022-12-24T17:46:02;10.80;99.90
32446;DHT22;18899;50.748;7.102;2022-12-24T17:48:28;10.60;99.90